createdAt,value
2023-03-02T00:03:01.820Z,35.80
2023-03-02T00:06:03.999Z,37.77
2023-03-02T00:09:06.184Z,38.27
2023-03-02T00:12:07.970Z,40.80
2023-03-02T00:15:09.876Z,41.60
2023-03-02T00:18:11.461Z,37.50
2023-03-02T00:21:13.048Z,43.60
2023-03-02T00:24:17.744Z,42.93
2023-03-02T00:27:19.321Z,47.53
2023-03-02T00:30:21.004Z,51.43
2023-03-02T00:33:25.651Z,51.03
2023-03-02T00:36:27.320Z,55.43
2023-03-02T00:39:28.951Z,56.40
2023-03-02T00:42:30.575Z,44.83
2023-03-02T00:45:32.233Z,42.00
2023-03-02T00:48:33.849Z,43.60
2023-03-02T00:51:35.424Z,48.37
2023-03-02T00:54:37.056Z,39.13
2023-03-02T00:57:38.803Z,48.37
2023-03-02T01:00:40.769Z,43.23
2023-03-02T01:03:42.892Z,39.70
2023-03-02T01:06:47.209Z,32.53
2023-03-02T01:09:48.847Z,31.90
2023-03-02T01:12:50.440Z,36.97
2023-03-02T01:15:59.837Z,36.93
2023-03-02T01:19:01.505Z,34.10
2023-03-02T01:22:03.410Z,35.67
2023-03-02T01:25:05.520Z,34.90
2023-03-02T01:28:07.209Z,37.00
2023-03-02T01:31:08.888Z,34.27
2023-03-02T01:34:10.515Z,28.20
2023-03-02T01:37:12.699Z,29.43
2023-03-02T01:40:14.486Z,27.33
2023-03-02T01:43:17.070Z,29.67
2023-03-02T01:46:21.750Z,32.93
2023-03-02T01:49:28.536Z,29.20
2023-03-02T01:52:35.269Z,30.13
2023-03-02T01:55:38.911Z,26.20
2023-03-02T01:58:40.530Z,26.03
2023-03-02T02:01:44.361Z,26.97
2023-03-02T02:04:47.706Z,29.00
2023-03-02T02:07:49.578Z,28.57
2023-03-02T02:10:52.995Z,28.10
2023-03-02T02:13:57.004Z,30.20
2023-03-02T02:16:58.737Z,31.73
2023-03-02T02:20:12.781Z,32.27
2023-03-02T02:23:21.852Z,39.80
2023-03-02T02:26:25.084Z,35.10
2023-03-02T02:29:38.235Z,34.43
2023-03-02T02:32:41.084Z,31.30
2023-03-02T02:35:45.016Z,33.90
2023-03-02T02:38:48.204Z,34.90
2023-03-02T02:41:55.162Z,36.47
2023-03-02T02:44:58.521Z,32.47
2023-03-02T02:48:01.581Z,34.67
2023-03-02T02:51:03.389Z,32.87
2023-03-02T02:54:05.146Z,32.80
2023-03-02T02:57:11.365Z,33.93
2023-03-02T03:00:18.548Z,28.53
2023-03-02T03:03:30.782Z,31.97
2023-03-02T03:06:42.136Z,29.03
2023-03-02T03:09:48.822Z,33.97
2023-03-02T03:12:51.248Z,34.63
2023-03-02T03:15:54.864Z,32.40
2023-03-02T03:18:57.623Z,29.03
2023-03-02T03:22:00.898Z,32.33
2023-03-02T03:25:06.255Z,41.80
2023-03-02T03:28:07.972Z,38.97
2023-03-02T03:31:10.073Z,40.07
2023-03-02T03:34:11.788Z,34.67
2023-03-02T03:37:15.664Z,45.83
2023-03-02T03:40:17.367Z,49.27
2023-03-02T03:43:20.423Z,39.97
2023-03-02T03:46:26.498Z,36.00
2023-03-02T03:49:28.437Z,31.17
2023-03-02T03:52:30.852Z,33.60
2023-03-02T03:55:40.875Z,27.50
2023-03-02T03:58:42.604Z,29.80
2023-03-02T04:01:47.129Z,24.17
2023-03-02T04:04:49.619Z,24.07
2023-03-02T04:07:53.465Z,22.73
2023-03-02T04:10:56.066Z,19.83
2023-03-02T04:13:57.959Z,24.17
2023-03-02T04:16:59.763Z,25.03
2023-03-02T04:20:01.453Z,23.30
2023-03-02T04:23:03.390Z,28.60
2023-03-02T04:26:05.265Z,23.33
2023-03-02T04:29:08.156Z,19.80
2023-03-02T04:32:11.879Z,21.43
2023-03-02T04:35:14.511Z,22.10
2023-03-02T04:38:16.567Z,20.00
2023-03-02T04:41:19.704Z,18.90
2023-03-02T04:44:23.580Z,18.00
2023-03-02T04:47:28.139Z,21.13
2023-03-02T04:50:30.129Z,22.07
2023-03-02T04:53:31.856Z,20.27
2023-03-02T04:56:33.937Z,20.30
2023-03-02T04:59:35.718Z,18.90
2023-03-02T05:02:37.355Z,21.03
2023-03-02T05:05:39.262Z,24.80
2023-03-02T05:08:41.047Z,23.70
2023-03-02T05:11:42.761Z,24.67
2023-03-02T05:14:45.731Z,23.03
2023-03-02T05:17:47.552Z,26.90
2023-03-02T05:20:51.016Z,27.63
2023-03-02T05:23:53.228Z,30.47
2023-03-02T05:26:56.444Z,25.50
2023-03-02T05:29:58.498Z,27.73
2023-03-02T05:33:01.251Z,25.77
2023-03-02T05:36:03.400Z,24.83
2023-03-02T05:39:06.126Z,26.07
2023-03-02T05:42:07.912Z,27.77
2023-03-02T05:45:13.685Z,29.23
2023-03-02T05:48:16.046Z,31.77
2023-03-02T05:51:17.885Z,25.40
2023-03-02T05:54:19.529Z,37.70
2023-03-02T05:57:21.148Z,42.43
2023-03-02T06:00:23.133Z,33.57
2023-03-02T06:03:25.251Z,69.63
2023-03-02T06:06:27.139Z,35.37
2023-03-02T06:09:28.766Z,100.97
2023-03-02T06:12:30.670Z,57.67
2023-03-02T06:15:36.164Z,37.47
2023-03-02T06:18:40.919Z,37.20
2023-03-02T06:21:46.394Z,36.77
2023-03-02T06:24:48.694Z,29.37
2023-03-02T06:27:51.771Z,29.70
2023-03-02T06:30:53.440Z,30.67
2023-03-02T06:33:55.069Z,40.87
2023-03-02T06:36:56.819Z,39.53
2023-03-02T06:39:58.905Z,60.90
2023-03-02T06:43:03.798Z,57.57
2023-03-02T06:46:05.919Z,53.17
2023-03-02T06:49:08.327Z,46.27
2023-03-02T06:52:11.114Z,40.93
2023-03-02T06:55:12.882Z,44.03
2023-03-02T06:58:14.575Z,41.27
2023-03-02T07:01:16.187Z,43.83
2023-03-02T07:04:17.871Z,48.80
2023-03-02T07:07:19.470Z,40.43
2023-03-02T07:10:21.097Z,45.77
2023-03-02T07:13:22.709Z,46.40
2023-03-02T07:16:24.554Z,38.97
2023-03-02T07:19:26.231Z,31.23
2023-03-02T07:22:27.901Z,41.90
2023-03-02T07:25:29.603Z,33.20
2023-03-02T07:28:31.245Z,36.10
2023-03-02T07:31:33.142Z,36.80
2023-03-02T07:34:34.972Z,49.00
2023-03-02T07:37:36.661Z,46.60
2023-03-02T07:40:42.002Z,40.30
2023-03-02T07:43:43.727Z,43.77
2023-03-02T07:46:45.430Z,47.07
2023-03-02T07:49:47.067Z,45.67
2023-03-02T07:52:48.758Z,50.33
2023-03-02T07:55:50.345Z,40.23
2023-03-02T07:58:51.949Z,37.63
2023-03-02T08:01:53.710Z,38.03
2023-03-02T08:04:55.320Z,34.73
2023-03-02T08:07:56.938Z,41.20
2023-03-02T08:11:04.097Z,73.50
2023-03-02T08:14:05.643Z,39.40
2023-03-02T08:17:07.338Z,29.27
2023-03-02T08:20:09.694Z,38.17
2023-03-02T08:23:11.416Z,36.27
2023-03-02T08:26:15.276Z,31.97
2023-03-02T08:29:19.058Z,31.00
2023-03-02T08:32:21.037Z,20.93
2023-03-02T08:35:22.703Z,22.63
2023-03-02T08:38:24.581Z,21.03
2023-03-02T08:41:26.860Z,22.47
2023-03-02T08:44:28.497Z,18.40
2023-03-02T08:47:30.080Z,19.40
2023-03-02T08:50:31.687Z,22.77
2023-03-02T08:53:34.752Z,19.17
2023-03-02T08:56:37.145Z,13.33
2023-03-02T08:59:38.900Z,11.60
2023-03-02T09:02:41.186Z,10.97
2023-03-02T09:05:43.234Z,14.03
2023-03-02T09:08:44.878Z,16.30
2023-03-02T09:11:46.901Z,14.60
2023-03-02T09:14:48.654Z,12.47
2023-03-02T09:17:50.229Z,11.23
2023-03-02T09:20:52.606Z,13.47
2023-03-02T09:23:58.181Z,16.97
2023-03-02T09:26:59.864Z,21.13
2023-03-02T09:30:01.473Z,12.10
2023-03-02T09:33:03.349Z,8.13
2023-03-02T09:36:05.795Z,10.13
2023-03-02T09:39:12.296Z,19.43
2023-03-02T09:42:17.153Z,11.53
2023-03-02T09:45:22.782Z,9.20
2023-03-02T09:48:24.482Z,27.67
2023-03-02T09:51:26.183Z,22.83
2023-03-02T09:54:28.719Z,29.13
2023-03-02T09:57:36.158Z,14.30
2023-03-02T10:00:41.132Z,19.10
2023-03-02T10:03:54.455Z,23.27
2023-03-02T10:06:57.934Z,25.70
2023-03-02T10:10:07.152Z,34.80
2023-03-02T10:13:17.668Z,27.83
2023-03-02T10:16:27.850Z,36.73
2023-03-02T10:19:32.485Z,30.43
2023-03-02T10:22:36.754Z,34.07
2023-03-02T10:25:48.667Z,33.77
2023-03-02T10:28:56.944Z,33.70
2023-03-02T10:32:13.392Z,41.60
2023-03-02T10:35:23.265Z,34.63
2023-03-02T10:38:25.367Z,44.20
2023-03-02T10:41:40.697Z,33.90
2023-03-02T10:44:46.301Z,33.33
2023-03-02T10:47:47.962Z,38.70
2023-03-02T10:50:53.292Z,47.13
2023-03-02T10:54:11.468Z,81.50
2023-03-02T10:57:31.626Z,39.10
2023-03-02T11:00:34.364Z,38.30
2023-03-02T11:03:36.049Z,49.13
2023-03-02T11:06:37.633Z,39.53
2023-03-02T11:09:39.459Z,36.40
2023-03-02T11:12:45.605Z,37.30
2023-03-02T11:15:48.394Z,39.50
2023-03-02T11:18:59.351Z,30.93
2023-03-02T11:22:20.552Z,32.77
2023-03-02T11:25:25.605Z,44.03
2023-03-02T11:28:36.494Z,42.73
2023-03-02T11:31:43.000Z,31.20
2023-03-02T11:34:49.760Z,33.37
2023-03-02T11:37:52.610Z,34.83
2023-03-02T11:40:54.170Z,36.13
2023-03-02T11:43:56.627Z,43.73
2023-03-02T11:47:00.864Z,27.30
2023-03-02T11:50:05.389Z,35.93
2023-03-02T11:53:12.442Z,35.50
2023-03-02T11:56:14.110Z,32.17
2023-03-02T11:59:20.276Z,36.03
2023-03-02T12:02:22.163Z,37.17
2023-03-02T12:05:25.207Z,38.50
2023-03-02T12:08:34.989Z,35.67
2023-03-02T12:11:38.825Z,31.73
2023-03-02T12:14:40.801Z,36.50
2023-03-02T12:17:48.773Z,31.03
2023-03-02T12:21:02.771Z,31.37
2023-03-02T12:24:06.328Z,32.17
2023-03-02T12:27:14.185Z,41.77
2023-03-02T12:30:16.222Z,29.80
2023-03-02T12:33:20.216Z,49.33
2023-03-02T12:36:27.178Z,66.70
2023-03-02T12:39:31.826Z,36.30
2023-03-02T12:42:52.222Z,41.93
2023-03-02T12:46:13.696Z,31.90
2023-03-02T12:49:15.396Z,39.33
2023-03-02T12:52:22.171Z,37.10
2023-03-02T12:55:25.327Z,37.27
2023-03-02T12:58:28.070Z,45.97
2023-03-02T13:01:30.887Z,52.10
2023-03-02T13:04:32.642Z,56.93
2023-03-02T13:07:36.266Z,57.83
2023-03-02T13:10:40.421Z,57.77
2023-03-02T13:13:43.525Z,53.27
2023-03-02T13:16:53.458Z,66.67
2023-03-02T13:19:55.212Z,95.80
2023-03-02T13:22:57.121Z,81.53
2023-03-02T13:26:00.322Z,66.87
2023-03-02T13:29:03.543Z,68.93
2023-03-02T13:32:21.900Z,71.33
2023-03-02T13:35:28.484Z,82.97
2023-03-02T13:38:32.898Z,70.23
2023-03-02T13:41:36.055Z,78.30
2023-03-02T13:44:37.718Z,74.63
2023-03-02T13:47:43.760Z,74.97
2023-03-02T13:50:59.061Z,74.50
2023-03-02T13:54:05.190Z,87.70
2023-03-02T13:57:07.023Z,84.63
2023-03-02T14:00:29.713Z,72.30
2023-03-02T14:03:31.371Z,68.10
2023-03-02T14:06:33.367Z,74.13
2023-03-02T14:09:35.217Z,92.23
2023-03-02T14:12:36.912Z,83.00
2023-03-02T14:15:41.580Z,69.97
2023-03-02T14:18:45.615Z,64.40
2023-03-02T14:21:48.010Z,84.60
2023-03-02T14:24:49.741Z,89.10
2023-03-02T14:27:51.359Z,73.33
2023-03-02T14:30:54.442Z,81.10
2023-03-02T14:33:56.104Z,73.03
2023-03-02T14:36:58.947Z,68.97
2023-03-02T14:40:00.613Z,75.73
2023-03-02T14:43:02.546Z,74.37
2023-03-02T14:46:04.380Z,81.17
2023-03-02T14:49:06.058Z,72.57
2023-03-02T14:52:23.518Z,70.17
2023-03-02T14:55:27.032Z,65.67
2023-03-02T14:58:33.119Z,62.37
2023-03-02T15:01:35.786Z,96.37
2023-03-02T15:04:37.776Z,130.33
2023-03-02T15:07:39.451Z,71.07
2023-03-02T15:10:42.613Z,113.40
2023-03-02T15:13:45.747Z,102.07
2023-03-02T15:16:47.521Z,82.07
2023-03-02T15:19:49.128Z,67.83
2023-03-02T15:22:50.828Z,91.10
2023-03-02T15:25:52.507Z,83.40
2023-03-02T15:28:54.112Z,93.70
2023-03-02T15:31:58.429Z,82.37
2023-03-02T15:35:00.183Z,67.13
2023-03-02T15:38:04.579Z,56.00
2023-03-02T15:41:07.585Z,100.67
2023-03-02T15:44:15.544Z,82.17
2023-03-02T15:47:17.716Z,71.90
2023-03-02T15:50:19.336Z,70.33
2023-03-02T15:53:21.012Z,82.53
2023-03-02T15:56:23.857Z,105.70
2023-03-02T15:59:28.893Z,73.00
2023-03-02T16:02:30.602Z,89.40
2023-03-02T16:05:32.204Z,98.97
2023-03-02T16:08:33.984Z,57.23
2023-03-02T16:11:35.627Z,58.83
2023-03-02T16:14:37.284Z,62.77
2023-03-02T16:17:38.917Z,60.20
2023-03-02T16:20:40.537Z,64.37
2023-03-02T16:23:42.131Z,58.67
2023-03-02T16:26:44.781Z,66.30
2023-03-02T16:29:46.714Z,74.30
2023-03-02T16:32:48.461Z,121.77
2023-03-02T16:35:50.338Z,57.23
2023-03-02T16:38:55.106Z,61.20
2023-03-02T16:41:56.741Z,55.43
2023-03-02T16:44:58.393Z,51.07
2023-03-02T16:47:59.986Z,55.87
2023-03-02T16:51:03.311Z,77.33
2023-03-02T16:54:05.105Z,85.63
2023-03-02T16:57:06.798Z,89.43
2023-03-02T17:00:09.644Z,75.30
2023-03-02T17:03:11.256Z,89.07
2023-03-02T17:06:13.838Z,92.10
2023-03-02T17:09:15.449Z,81.20
2023-03-02T17:12:17.074Z,94.40
2023-03-02T17:15:18.842Z,77.27
2023-03-02T17:18:20.906Z,78.80
2023-03-02T17:21:24.291Z,79.30
2023-03-02T17:24:26.755Z,100.43
2023-03-02T17:27:28.485Z,89.03
2023-03-02T17:30:30.142Z,113.37
2023-03-02T17:33:33.946Z,86.53
2023-03-02T17:36:47.992Z,87.47
2023-03-02T17:39:50.892Z,117.43
2023-03-02T17:42:55.389Z,106.70
2023-03-02T17:46:07.225Z,114.07
2023-03-02T17:49:08.824Z,119.23
2023-03-02T17:52:10.845Z,133.13
2023-03-02T17:55:12.906Z,96.63
2023-03-02T17:58:15.448Z,110.20
2023-03-02T18:01:17.216Z,103.63
2023-03-02T18:04:18.886Z,107.83
2023-03-02T18:07:20.605Z,106.83
2023-03-02T18:10:22.301Z,104.73
2023-03-02T18:13:23.940Z,94.77
2023-03-02T18:16:26.574Z,99.90
2023-03-02T18:19:28.242Z,102.30
2023-03-02T18:22:29.914Z,89.03
2023-03-02T18:25:31.516Z,114.77
2023-03-02T18:28:33.159Z,98.13
2023-03-02T18:31:34.837Z,100.23
2023-03-02T18:34:36.532Z,102.87
2023-03-02T18:37:38.120Z,99.23
2023-03-02T18:40:39.830Z,118.57
2023-03-02T18:43:42.068Z,108.53
2023-03-02T18:46:43.804Z,100.77
2023-03-02T18:49:45.840Z,113.97
2023-03-02T18:52:48.026Z,107.47
2023-03-02T18:55:50.663Z,94.13
2023-03-02T18:58:52.395Z,90.07
2023-03-02T19:01:54.096Z,90.57
2023-03-02T19:04:55.788Z,95.57
2023-03-02T19:08:00.298Z,75.93
2023-03-02T19:11:02.059Z,77.90
2023-03-02T19:14:03.833Z,71.10
2023-03-02T19:17:05.622Z,66.47
2023-03-02T19:20:07.755Z,110.47
2023-03-02T19:23:09.426Z,77.90
2023-03-02T19:26:11.091Z,68.93
2023-03-02T19:29:12.733Z,73.60
2023-03-02T19:32:14.899Z,70.50
2023-03-02T19:35:20.043Z,71.63
2023-03-02T19:38:22.700Z,72.77
2023-03-02T19:41:24.846Z,66.93
2023-03-02T19:44:26.820Z,68.13
2023-03-02T19:47:29.725Z,62.37
2023-03-02T19:50:31.801Z,68.53
2023-03-02T19:53:34.041Z,68.77
2023-03-02T19:56:39.622Z,67.53
2023-03-02T19:59:41.345Z,63.97
2023-03-02T20:02:44.830Z,72.90
2023-03-02T20:05:46.471Z,64.33
2023-03-02T20:08:48.458Z,67.17
2023-03-02T20:11:50.355Z,74.57
2023-03-02T20:14:52.998Z,77.50
2023-03-02T20:18:02.596Z,69.53
2023-03-02T20:21:04.523Z,70.33
2023-03-02T20:24:06.498Z,76.73
2023-03-02T20:27:08.697Z,67.23
2023-03-02T20:30:11.550Z,73.27
2023-03-02T20:33:13.952Z,72.73
2023-03-02T20:36:17.416Z,74.00
2023-03-02T20:39:24.907Z,68.73
2023-03-02T20:42:27.477Z,67.23
2023-03-02T20:45:29.388Z,64.00
2023-03-02T20:48:31.313Z,62.80
2023-03-02T20:51:33.046Z,65.67
2023-03-02T20:54:36.644Z,61.53
2023-03-02T20:57:38.595Z,66.37
2023-03-02T21:00:40.362Z,61.27
2023-03-02T21:03:42.385Z,75.97
2023-03-02T21:06:44.655Z,92.20
2023-03-02T21:09:46.397Z,87.17
2023-03-02T21:12:49.066Z,82.80
2023-03-02T21:15:51.086Z,76.33
2023-03-02T21:18:53.103Z,80.03
2023-03-02T21:21:55.714Z,83.60
2023-03-02T21:24:57.543Z,81.03
2023-03-02T21:27:59.166Z,87.67
2023-03-02T21:31:00.868Z,86.63
2023-03-02T21:34:02.449Z,71.63
2023-03-02T21:37:04.661Z,71.83
2023-03-02T21:40:07.167Z,74.67
2023-03-02T21:43:08.867Z,71.67
2023-03-02T21:46:14.686Z,83.03
2023-03-02T21:49:17.923Z,81.67
2023-03-02T21:52:19.530Z,78.27
2023-03-02T21:55:21.617Z,104.60
2023-03-02T21:58:23.325Z,72.00
2023-03-02T22:01:26.589Z,78.97
2023-03-02T22:04:29.462Z,80.97
2023-03-02T22:07:31.537Z,82.70
2023-03-02T22:10:43.903Z,78.13
2023-03-02T22:13:45.561Z,73.80
2023-03-02T22:16:48.211Z,75.83
2023-03-02T22:19:51.207Z,83.27
2023-03-02T22:22:56.106Z,70.90
2023-03-02T22:26:01.803Z,76.53
2023-03-02T22:29:12.544Z,74.37
2023-03-02T22:32:15.315Z,79.23
2023-03-02T22:35:22.075Z,79.77
2023-03-02T22:38:26.929Z,73.20
2023-03-02T22:41:28.580Z,81.00
2023-03-02T22:44:30.271Z,79.03
2023-03-02T22:47:32.220Z,74.23
2023-03-02T22:50:33.861Z,67.97
2023-03-02T22:53:37.984Z,69.53
2023-03-02T22:56:43.253Z,76.17
2023-03-02T22:59:44.918Z,81.07
2023-03-02T23:02:46.636Z,83.40
2023-03-02T23:05:51.534Z,83.60
2023-03-02T23:08:54.095Z,74.80
2023-03-02T23:12:05.221Z,82.07
2023-03-02T23:15:15.012Z,95.27
2023-03-02T23:18:22.419Z,89.03
2023-03-02T23:21:28.298Z,101.43
2023-03-02T23:24:30.160Z,90.50
2023-03-02T23:27:31.861Z,116.67
2023-03-02T23:30:33.492Z,117.43
2023-03-02T23:33:35.236Z,140.37
2023-03-02T23:36:37.642Z,254.30
2023-03-02T23:39:39.199Z,246.50
2023-03-02T23:42:40.873Z,320.10
2023-03-02T23:45:42.510Z,288.23
2023-03-02T23:48:44.424Z,329.93
2023-03-02T23:51:46.102Z,322.67
2023-03-02T23:54:47.929Z,250.40
2023-03-02T23:57:49.587Z,302.60
